Time;durP1;ratioP1;P1;durP2;ratioP2;P2;SDS_P1;SDS_P2;PMS_P1;PMS_P2;Temp;Humidity;BMP_temperature;BMP_pressure;BME280_temperature;BME280_humidity;BME280_pressure;Samples;Min_cycle;Max_cycle;Signal;HPM_P1;HPM_P2
2022/10/08 00:00:45;;;;;;;3.47;2.50;;;18.20;51.80;;;;;;5014119;28;20408;-75
2022/10/08 00:03:14;;;;;;;3.63;2.13;;;18.30;51.20;;;;;;5014354;28;20531;-74
2022/10/08 00:05:41;;;;;;;2.60;2.00;;;18.10;51.70;;;;;;5014509;28;20411;-74
2022/10/08 00:08:08;;;;;;;3.03;2.53;;;18.20;51.80;;;;;;5014840;28;20416;-74
2022/10/08 00:10:34;;;;;;;3.20;2.63;;;18.20;51.30;;;;;;5014487;28;20436;-75
2022/10/08 00:13:00;;;;;;;2.47;2.10;;;18.10;51.20;;;;;;5013930;28;20528;-74
2022/10/08 00:15:26;;;;;;;1.70;1.53;;;18.00;51.50;;;;;;5014352;28;20417;-74
2022/10/08 00:17:53;;;;;;;2.20;1.80;;;18.00;51.80;;;;;;5014069;28;20418;-74
2022/10/08 00:20:18;;;;;;;2.00;1.90;;;18.10;51.30;;;;;;5014545;28;20182;-74
2022/10/08 00:22:44;;;;;;;1.90;1.83;;;18.30;50.30;;;;;;5012492;28;20809;-74
2022/10/08 00:25:10;;;;;;;1.73;1.70;;;18.40;49.60;;;;;;5014126;28;20467;-74
2022/10/08 00:27:35;;;;;;;1.93;1.70;;;18.40;50.00;;;;;;5014039;28;20173;-75
2022/10/08 00:30:03;;;;;;;4.07;2.30;;;18.30;50.60;;;;;;5014412;28;20185;-74
2022/10/08 00:32:29;;;;;;;4.20;2.73;;;18.10;51.70;;;;;;5013463;28;22121;-75
2022/10/08 00:34:54;;;;;;;4.53;2.60;;;18.20;52.20;;;;;;5013789;28;20416;-74
2022/10/08 00:37:20;;;;;;;2.07;1.93;;;18.30;52.00;;;;;;5013984;28;20185;-74
2022/10/08 00:39:46;;;;;;;1.53;1.53;;;18.60;50.80;;;;;;5014022;28;20272;-75
2022/10/08 00:42:11;;;;;;;2.53;2.00;;;18.70;50.20;;;;;;5013564;28;20233;-74
2022/10/08 00:44:50;;;;;;;3.07;2.30;;;18.50;51.60;;;;;;5013803;28;20189;-74
2022/10/08 00:47:27;;;;;;;3.43;2.47;;;18.50;51.90;;;;;;5013716;28;20483;-74
2022/10/08 00:49:56;;;;;;;2.13;2.00;;;18.40;51.90;;;;;;5013871;28;20432;-74
2022/10/08 00:52:25;;;;;;;2.27;1.97;;;18.30;52.00;;;;;;5013417;28;20408;-74
2022/10/08 00:54:51;;;;;;;2.83;2.10;;;18.30;52.20;;;;;;5013577;28;20413;-74
2022/10/08 00:57:20;;;;;;;3.70;2.90;;;18.30;51.90;;;;;;5013697;28;20419;-74
2022/10/08 00:59:45;;;;;;;4.30;2.60;;;18.40;51.80;;;;;;5013581;28;20422;-74
2022/10/08 01:02:12;;;;;;;1.70;1.40;;;18.30;51.80;;;;;;5012983;28;20414;-74
2022/10/08 01:04:39;;;;;;;3.60;2.30;;;18.30;52.00;;;;;;5013368;28;20224;-74
2022/10/08 01:07:31;;;;;;;2.60;1.93;;;18.30;51.60;;;;;;5013556;28;20466;-75
2022/10/08 01:10:19;;;;;;;2.50;1.90;;;18.40;51.00;;;;;;5013547;28;20419;-75
2022/10/08 01:13:18;;;;;;;3.37;2.40;;;18.30;51.10;;;;;;5012840;28;20494;-74
2022/10/08 01:16:07;;;;;;;2.63;2.17;;;18.40;50.80;;;;;;5013626;28;20398;-74
2022/10/08 01:19:03;;;;;;;5.50;2.53;;;18.20;51.90;;;;;;5013271;28;20891;-74
2022/10/08 01:21:46;;;;;;;3.87;2.20;;;18.10;52.50;;;;;;5012845;28;20902;-74
2022/10/08 01:25:31;;;;;;;3.20;2.10;;;18.10;52.70;;;;;;5013239;28;21002;-74
2022/10/08 01:27:30;;;;;;;2.40;2.20;;;18.30;52.10;;;;;;5013058;28;20419;-75
2022/10/08 01:29:57;;;;;;;3.43;2.03;;;18.20;51.80;;;;;;5013297;28;20404;-74
2022/10/08 01:32:30;;;;;;;3.40;2.50;;;18.10;52.30;;;;;;5012976;28;20423;-75
2022/10/08 01:35:01;;;;;;;2.10;1.87;;;18.30;51.30;;;;;;5012877;28;20443;-74
2022/10/08 01:37:31;;;;;;;2.73;2.63;;;18.40;50.40;;;;;;5013034;28;20404;-74
2022/10/08 01:40:00;;;;;;;3.60;2.43;;;18.40;50.80;;;;;;5012857;28;20434;-74
2022/10/08 01:42:27;;;;;;;4.13;2.80;;;18.20;51.20;;;;;;5012510;28;20408;-74
2022/10/08 01:44:59;;;;;;;4.80;2.20;;;18.20;51.80;;;;;;5012696;28;20867;-74
2022/10/08 01:47:27;;;;;;;1.90;1.80;;;18.30;50.60;;;;;;5012900;28;20570;-74
2022/10/08 01:50:11;;;;;;;1.57;1.53;;;18.30;50.50;;;;;;5012818;28;20933;-74
2022/10/08 01:52:42;;;;;;;4.70;2.93;;;18.20;51.40;;;;;;5012196;28;20420;-74
2022/10/08 01:55:15;;;;;;;2.43;2.17;;;18.30;51.20;;;;;;5011962;28;20396;-74
2022/10/08 01:57:43;;;;;;;2.53;2.20;;;18.10;51.70;;;;;;5011169;28;20427;-74
2022/10/08 02:00:12;;;;;;;3.90;2.30;;;18.10;51.60;;;;;;5012558;28;20419;-74
2022/10/08 02:02:39;;;;;;;2.60;2.10;;;18.20;51.30;;;;;;5011808;28;20479;-76
2022/10/08 02:05:05;;;;;;;3.93;2.50;;;18.30;51.00;;;;;;5012366;28;20463;-74
2022/10/08 02:07:35;;;;;;;5.97;2.87;;;18.20;50.80;;;;;;5010899;28;20428;-74
2022/10/08 02:10:11;;;;;;;3.43;2.60;;;18.20;51.50;;;;;;5011224;28;20412;-74
2022/10/08 02:12:39;;;;;;;3.33;2.30;;;18.10;51.60;;;;;;5011319;28;20435;-74
2022/10/08 02:15:07;;;;;;;2.00;1.90;;;18.30;50.90;;;;;;5012262;28;20400;-74
2022/10/08 02:18:05;;;;;;;5.10;3.50;;;18.30;50.90;;;;;;5011855;28;20439;-74
2022/10/08 02:20:49;;;;;;;5.00;2.30;;;18.30;50.80;;;;;;5012308;28;20416;-74
2022/10/08 02:23:33;;;;;;;1.70;1.60;;;18.20;51.20;;;;;;5011634;28;20458;-74
2022/10/08 02:26:07;;;;;;;3.97;2.37;;;18.40;50.80;;;;;;5012160;28;20415;-74
2022/10/08 02:28:55;;;;;;;2.77;2.30;;;18.30;51.30;;;;;;5012160;28;20440;-76
2022/10/08 02:31:36;;;;;;;3.30;2.50;;;18.30;51.20;;;;;;5011751;28;20492;-74
2022/10/08 02:34:42;;;;;;;4.40;3.10;;;18.20;52.10;;;;;;5011583;28;20573;-74
2022/10/08 02:37:14;;;;;;;3.63;2.23;;;18.30;51.80;;;;;;5009235;28;20527;-74
2022/10/08 02:39:45;;;;;;;2.47;1.93;;;18.30;52.00;;;;;;5009508;28;20405;-74
2022/10/08 02:42:17;;;;;;;4.53;2.30;;;18.40;51.50;;;;;;5008987;28;20808;-74
2022/10/08 02:44:56;;;;;;;2.70;2.40;;;18.40;51.80;;;;;;5009134;28;20463;-75
2022/10/08 02:47:25;;;;;;;1.90;1.80;;;18.50;51.20;;;;;;5009550;28;20518;-74
2022/10/08 02:49:56;;;;;;;2.03;1.90;;;18.40;51.20;;;;;;5009523;28;20405;-74
2022/10/08 02:52:26;;;;;;;1.70;1.60;;;18.50;50.70;;;;;;5008824;28;20401;-74
2022/10/08 02:54:53;;;;;;;2.07;1.87;;;18.50;51.00;;;;;;5009264;28;20445;-74
2022/10/08 02:57:28;;;;;;;2.57;1.97;;;18.60;50.40;;;;;;5009360;28;20503;-74
2022/10/08 02:59:54;;;;;;;3.97;2.47;;;18.40;51.00;;;;;;5009274;28;20416;-74
2022/10/08 03:02:50;;;;;;;2.30;2.10;;;18.50;51.00;;;;;;5008638;28;20416;-74
2022/10/08 03:05:18;;;;;;;2.83;2.27;;;18.40;51.00;;;;;;5005651;28;20495;-74
2022/10/08 03:07:45;;;;;;;3.50;2.53;;;18.50;51.20;;;;;;5008933;28;20444;-74
2022/10/08 03:10:11;;;;;;;3.10;2.23;;;18.40;51.10;;;;;;5009439;28;20409;-75
2022/10/08 03:12:38;;;;;;;4.37;2.27;;;18.30;51.70;;;;;;5008822;28;20424;-74
2022/10/08 03:15:05;;;;;;;2.63;2.20;;;18.20;51.30;;;;;;5011444;28;20415;-74
2022/10/08 03:17:35;;;;;;;2.70;2.30;;;18.20;52.00;;;;;;5011535;28;20409;-74
2022/10/08 03:20:04;;;;;;;3.07;2.07;;;18.10;52.10;;;;;;5011262;28;20778;-74
2022/10/08 03:22:30;;;;;;;2.47;2.10;;;18.00;51.90;;;;;;5010879;28;20512;-75
2022/10/08 03:24:56;;;;;;;2.70;2.40;;;18.00;52.20;;;;;;5011372;28;20947;-74
2022/10/08 03:27:22;;;;;;;2.20;1.83;;;18.00;52.20;;;;;;5011547;28;20458;-76
2022/10/08 03:29:47;;;;;;;2.30;1.90;;;18.10;51.80;;;;;;5014149;28;20216;-74
2022/10/08 03:32:13;;;;;;;2.43;2.07;;;18.20;50.70;;;;;;5015099;28;20172;-74
2022/10/08 03:34:38;;;;;;;3.20;2.30;;;18.30;50.40;;;;;;5015073;28;20511;-74
2022/10/08 03:37:04;;;;;;;1.97;1.47;;;18.30;50.40;;;;;;5015426;28;20173;-75
2022/10/08 03:39:29;;;;;;;5.37;2.60;;;18.30;50.30;;;;;;5015009;28;20184;-74
2022/10/08 03:41:55;;;;;;;2.23;2.03;;;18.10;51.00;;;;;;5014788;28;20722;-74
2022/10/08 03:44:21;;;;;;;2.57;1.90;;;18.20;51.20;;;;;;5014727;28;20203;-74
2022/10/08 03:46:46;;;;;;;2.93;1.90;;;18.10;51.70;;;;;;5015149;28;20233;-74
2022/10/08 03:49:12;;;;;;;3.30;2.23;;;18.00;52.70;;;;;;5014982;28;20541;-74
2022/10/08 03:51:37;;;;;;;2.83;1.97;;;18.00;52.10;;;;;;5014707;28;20182;-74
2022/10/08 03:54:04;;;;;;;2.37;1.87;;;18.00;52.50;;;;;;5014602;28;20685;-74
2022/10/08 03:56:29;;;;;;;3.20;2.17;;;18.00;52.10;;;;;;5014949;28;20181;-73
2022/10/08 03:58:58;;;;;;;2.50;1.87;;;18.00;52.40;;;;;;5014547;28;20430;-74
2022/10/08 04:01:25;;;;;;;14.00;2.33;;;17.90;52.30;;;;;;5014577;28;20186;-74
2022/10/08 04:03:51;;;;;;;2.00;1.67;;;17.90;52.70;;;;;;5014264;28;20896;-74
2022/10/08 04:06:17;;;;;;;2.83;2.20;;;17.90;51.70;;;;;;5015477;28;20506;-76
2022/10/08 04:08:43;;;;;;;4.00;2.87;;;18.10;51.20;;;;;;5014590;28;20726;-76
2022/10/08 04:11:12;;;;;;;2.07;1.83;;;18.20;50.90;;;;;;5014327;28;20400;-76
2022/10/08 04:13:38;;;;;;;2.47;2.20;;;18.00;51.30;;;;;;5014033;28;20457;-76
2022/10/08 04:16:12;;;;;;;3.50;2.17;;;18.10;51.30;;;;;;5014627;28;20423;-76
2022/10/08 04:18:38;;;;;;;3.27;2.00;;;18.00;51.50;;;;;;5014493;28;20408;-76
2022/10/08 04:21:07;;;;;;;1.77;1.70;;;17.90;52.10;;;;;;5014097;28;20771;-76
2022/10/08 04:23:35;;;;;;;2.20;2.00;;;18.10;51.50;;;;;;5013692;28;20837;-76
2022/10/08 04:26:01;;;;;;;4.90;2.60;;;18.10;52.00;;;;;;5013294;28;20404;-76
2022/10/08 04:28:27;;;;;;;1.90;1.80;;;18.20;51.10;;;;;;5013309;28;20423;-76
2022/10/08 04:31:01;;;;;;;4.37;3.20;;;18.00;51.80;;;;;;5013145;28;20430;-76
2022/10/08 04:33:28;;;;;;;4.23;2.23;;;18.00;51.70;;;;;;4994227;28;20784;-76
2022/10/08 04:35:54;;;;;;;32.03;2.30;;;17.80;52.20;;;;;;4994475;28;20410;-76
2022/10/08 04:38:21;;;;;;;2.50;1.80;;;17.90;52.40;;;;;;4994503;28;20459;-76
2022/10/08 04:40:47;;;;;;;3.30;1.93;;;17.90;51.90;;;;;;4993534;28;20413;-76
2022/10/08 04:43:13;;;;;;;2.53;2.13;;;17.90;52.00;;;;;;4994633;28;20441;-76
2022/10/08 04:45:44;;;;;;;3.33;2.67;;;17.90;52.00;;;;;;4994161;28;20940;-76
2022/10/08 04:48:12;;;;;;;3.30;2.27;;;17.80;52.80;;;;;;4994473;28;20968;-76
2022/10/08 04:50:38;;;;;;;2.33;2.13;;;17.80;53.40;;;;;;4994185;28;20778;-76
2022/10/08 04:53:04;;;;;;;2.03;1.70;;;17.70;53.70;;;;;;4993606;28;20437;-76
2022/10/08 04:55:30;;;;;;;2.33;1.97;;;17.80;53.30;;;;;;4994048;28;20445;-76
2022/10/08 04:57:56;;;;;;;2.97;2.10;;;17.70;53.00;;;;;;4994281;28;20452;-76
2022/10/08 05:00:21;;;;;;;3.57;2.57;;;17.70;53.10;;;;;;4993980;28;20217;-76
2022/10/08 05:02:47;;;;;;;2.57;2.07;;;17.80;53.10;;;;;;4993422;28;20213;-76
2022/10/08 05:05:13;;;;;;;2.80;2.40;;;17.70;53.20;;;;;;5021457;23;20628;-69
2022/10/08 05:07:39;;;;;;;2.53;2.10;;;17.70;53.10;;;;;;5009681;28;20170;-70
2022/10/08 05:10:05;;;;;;;2.20;2.03;;;17.70;52.80;;;;;;5012944;28;20777;-70
2022/10/08 05:12:31;;;;;;;2.80;2.07;;;17.90;51.90;;;;;;5012796;28;20219;-70
2022/10/08 05:14:56;;;;;;;2.97;2.53;;;17.80;52.30;;;;;;5012718;28;20432;-70
2022/10/08 05:17:22;;;;;;;5.73;3.40;;;17.90;51.90;;;;;;5013003;28;20188;-70
2022/10/08 05:19:47;;;;;;;2.27;1.90;;;18.00;51.20;;;;;;5012043;28;20178;-70
2022/10/08 05:22:13;;;;;;;2.63;2.13;;;17.80;51.20;;;;;;5012430;28;20200;-70
2022/10/08 05:24:38;;;;;;;1.70;1.70;;;17.80;51.40;;;;;;5012748;28;20209;-70
2022/10/08 05:27:04;;;;;;;1.67;1.67;;;17.70;51.90;;;;;;5012721;28;20245;-70
2022/10/08 05:29:30;;;;;;;2.33;2.03;;;17.80;51.40;;;;;;5013103;28;20162;-70
2022/10/08 05:31:56;;;;;;;2.37;2.10;;;17.70;51.90;;;;;;5012046;28;20606;-70
2022/10/08 05:34:21;;;;;;;2.57;2.20;;;17.70;51.40;;;;;;5011469;28;20412;-70
2022/10/08 05:36:47;;;;;;;2.30;2.10;;;17.60;51.40;;;;;;5012541;28;20188;-72
2022/10/08 05:39:12;;;;;;;2.23;1.90;;;17.60;51.70;;;;;;5012833;28;20185;-70
2022/10/08 05:41:39;;;;;;;1.80;1.70;;;17.50;52.30;;;;;;5012064;28;20551;-70
2022/10/08 05:44:06;;;;;;;2.47;2.13;;;17.50;52.90;;;;;;5012236;28;20292;-70
2022/10/08 05:46:33;;;;;;;1.87;1.67;;;17.60;52.30;;;;;;5012643;28;20457;-70
2022/10/08 05:49:01;;;;;;;7.37;2.60;;;17.60;52.20;;;;;;5012543;28;20937;-70
2022/10/08 05:51:27;;;;;;;4.70;2.73;;;17.60;52.40;;;;;;5011112;28;20923;-70
2022/10/08 05:53:55;;;;;;;1.97;1.83;;;17.50;52.70;;;;;;5012125;28;20435;-70
2022/10/08 05:56:22;;;;;;;2.40;2.20;;;17.60;53.00;;;;;;5012445;28;20424;-70
2022/10/08 05:58:49;;;;;;;2.57;1.70;;;17.50;52.90;;;;;;5012374;28;20404;-70
2022/10/08 06:01:26;;;;;;;5.50;2.50;;;17.60;53.30;;;;;;5011796;28;20436;-70
2022/10/08 06:04:00;;;;;;;4.70;3.33;;;17.60;53.20;;;;;;5011766;28;20439;-71
2022/10/08 06:06:27;;;;;;;2.93;2.40;;;17.70;53.10;;;;;;5012067;28;20816;-70
2022/10/08 06:08:54;;;;;;;1.77;1.67;;;17.80;53.20;;;;;;5012295;28;20409;-70
2022/10/08 06:11:20;;;;;;;2.60;2.10;;;17.90;52.20;;;;;;5011616;28;20402;-70
2022/10/08 06:13:46;;;;;;;2.37;2.17;;;18.00;52.00;;;;;;5011793;28;20421;-70
2022/10/08 06:16:11;;;;;;;2.27;1.90;;;18.10;51.60;;;;;;5011866;28;20436;-70
2022/10/08 06:18:39;;;;;;;2.23;2.10;;;18.10;51.20;;;;;;5012013;28;20251;-70
2022/10/08 06:21:16;;;;;;;3.20;2.13;;;18.00;51.80;;;;;;5011870;28;20649;-70
2022/10/08 06:23:49;;;;;;;2.10;1.90;;;18.00;52.80;;;;;;5011413;28;21049;-69
2022/10/08 06:26:16;;;;;;;3.77;2.63;;;18.10;51.70;;;;;;5011913;28;20428;-70
2022/10/08 06:28:43;;;;;;;2.70;2.07;;;18.00;52.20;;;;;;5011783;28;20923;-69
2022/10/08 06:31:09;;;;;;;2.97;2.73;;;18.10;53.10;;;;;;5011391;28;20415;-70
2022/10/08 06:33:35;;;;;;;2.43;2.23;;;18.20;52.00;;;;;;5011493;28;20408;-70
2022/10/08 06:36:05;;;;;;;3.77;2.80;;;18.40;51.50;;;;;;5011265;28;20611;-70
2022/10/08 06:38:32;;;;;;;5.10;2.37;;;18.50;51.20;;;;;;5011990;28;20435;-69
2022/10/08 06:40:58;;;;;;;2.40;2.00;;;18.40;51.40;;;;;;5011218;28;20937;-70
2022/10/08 06:43:25;;;;;;;4.10;3.20;;;18.30;52.30;;;;;;5011292;28;20814;-70
2022/10/08 06:45:52;;;;;;;2.43;2.03;;;18.40;52.50;;;;;;5011435;28;20927;-70
2022/10/08 06:48:18;;;;;;;5.57;2.30;;;18.60;51.30;;;;;;5011340;28;21010;-70
2022/10/08 06:50:44;;;;;;;2.90;2.20;;;18.70;51.40;;;;;;5011125;28;20967;-70
2022/10/08 06:53:10;;;;;;;2.77;2.20;;;18.70;51.30;;;;;;5011198;28;20410;-70
2022/10/08 06:55:36;;;;;;;2.40;2.20;;;18.60;52.60;;;;;;5011361;28;20261;-70
2022/10/08 06:58:04;;;;;;;2.40;2.10;;;18.60;53.40;;;;;;5011331;28;20424;-70
2022/10/08 07:00:30;;;;;;;2.53;2.30;;;18.80;52.70;;;;;;5011252;28;20487;-70
2022/10/08 07:02:56;;;;;;;2.30;2.10;;;18.80;52.20;;;;;;5010816;28;20836;-70
2022/10/08 07:05:22;;;;;;;3.00;1.97;;;18.80;52.30;;;;;;5010896;28;20542;-70
2022/10/08 07:07:48;;;;;;;2.50;2.30;;;18.70;52.50;;;;;;5011273;28;20408;-70
2022/10/08 07:10:13;;;;;;;6.10;3.40;;;18.80;52.70;;;;;;5011206;28;20497;-69
2022/10/08 07:12:39;;;;;;;2.47;1.70;;;19.00;51.00;;;;;;5010626;28;20176;-70
2022/10/08 07:15:05;;;;;;;4.20;2.63;;;19.00;51.90;;;;;;5011089;28;20686;-70
2022/10/08 07:17:31;;;;;;;5.47;2.87;;;19.00;51.60;;;;;;5011153;28;20227;-70
2022/10/08 07:19:56;;;;;;;3.77;2.53;;;19.20;50.20;;;;;;5011049;28;20444;-70
2022/10/08 07:22:22;;;;;;;5.27;2.93;;;19.10;50.10;;;;;;5010623;28;20187;-70
2022/10/08 07:24:48;;;;;;;3.27;2.87;;;18.90;51.30;;;;;;5010720;28;20591;-70
2022/10/08 07:27:15;;;;;;;8.43;2.70;;;18.90;51.30;;;;;;5010847;28;20416;-70
2022/10/08 07:29:41;;;;;;;6.40;2.83;;;18.90;52.10;;;;;;5011318;28;20181;-70
2022/10/08 07:32:07;;;;;;;2.97;2.50;;;19.00;51.80;;;;;;5010556;28;20412;-70
2022/10/08 07:34:32;;;;;;;5.10;2.80;;;19.00;51.70;;;;;;5011077;28;20194;-70
2022/10/08 07:36:58;;;;;;;4.00;2.87;;;19.00;51.20;;;;;;5010635;28;20177;-70
2022/10/08 07:39:23;;;;;;;3.13;2.67;;;19.00;52.00;;;;;;5011409;28;20670;-70
2022/10/08 07:41:49;;;;;;;3.43;2.20;;;18.90;52.00;;;;;;5010349;28;20220;-70
2022/10/08 07:44:16;;;;;;;2.67;1.70;;;19.00;51.60;;;;;;5011124;28;20198;-70
2022/10/08 07:46:45;;;;;;;2.47;2.27;;;19.00;50.90;;;;;;5010760;28;20914;-70
2022/10/08 07:49:11;;;;;;;3.03;2.33;;;19.00;50.90;;;;;;5010985;28;20444;-69
2022/10/08 07:51:36;;;;;;;2.33;2.13;;;19.10;51.00;;;;;;5010514;28;20816;-69
2022/10/08 07:54:05;;;;;;;2.73;1.97;;;19.10;50.50;;;;;;5010688;28;20273;-70
2022/10/08 07:56:31;;;;;;;2.60;2.03;;;19.00;50.10;;;;;;5010890;28;20411;-70
2022/10/08 07:58:58;;;;;;;3.77;2.20;;;18.90;51.40;;;;;;5010926;28;20428;-70
2022/10/08 08:01:28;;;;;;;4.00;2.60;;;18.90;50.50;;;;;;5010436;28;20419;-70
2022/10/08 08:03:56;;;;;;;3.83;2.20;;;19.20;50.10;;;;;;5010742;28;20498;-70
2022/10/08 08:06:23;;;;;;;16.90;2.30;;;19.00;50.50;;;;;;5010831;28;20457;-70
2022/10/08 08:08:49;;;;;;;3.23;2.23;;;19.10;50.60;;;;;;5010574;28;20904;-70
2022/10/08 08:11:17;;;;;;;2.60;2.17;;;19.10;50.80;;;;;;5010688;28;20532;-70
2022/10/08 08:13:43;;;;;;;2.80;2.23;;;18.90;51.30;;;;;;5010397;28;20177;-70
2022/10/08 08:16:12;;;;;;;2.40;2.23;;;19.00;51.40;;;;;;5014280;28;20443;-70
2022/10/08 08:18:40;;;;;;;3.37;2.90;;;18.90;50.90;;;;;;5014230;28;20777;-70
2022/10/08 08:21:12;;;;;;;4.03;2.97;;;19.20;50.70;;;;;;5013937;28;20413;-70
2022/10/08 08:23:41;;;;;;;5.33;3.13;;;19.40;49.50;;;;;;5013571;28;20416;-70
2022/10/08 08:26:09;;;;;;;3.10;1.93;;;19.20;49.30;;;;;;5014204;28;20574;-70
2022/10/08 08:28:35;;;;;;;4.00;2.20;;;18.80;51.00;;;;;;5013875;28;20417;-70
2022/10/08 08:31:17;;;;;;;7.07;3.03;;;18.70;51.50;;;;;;5013714;28;20415;-70
2022/10/08 08:33:51;;;;;;;5.50;2.80;;;18.60;52.60;;;;;;5013295;28;20420;-70
2022/10/08 08:36:18;;;;;;;7.20;3.33;;;18.70;52.10;;;;;;5013865;28;20951;-70
2022/10/08 08:38:43;;;;;;;3.20;2.37;;;18.60;53.20;;;;;;5013760;28;20876;-69
2022/10/08 08:41:21;;;;;;;2.20;2.00;;;18.90;51.40;;;;;;5013254;28;20496;-70
2022/10/08 08:43:47;;;;;;;4.20;2.30;;;19.50;49.60;;;;;;5013363;28;20210;-70
2022/10/08 08:46:17;;;;;;;4.40;2.20;;;19.30;49.40;;;;;;5013633;28;20789;-70
2022/10/08 08:48:44;;;;;;;3.10;2.37;;;19.10;50.30;;;;;;5013561;28;20405;-70
2022/10/08 08:51:11;;;;;;;5.90;2.70;;;19.10;50.30;;;;;;5013351;28;20421;-70
2022/10/08 08:53:37;;;;;;;3.17;2.20;;;19.20;50.60;;;;;;5013381;28;20789;-70
2022/10/08 08:56:06;;;;;;;5.40;3.70;;;19.50;50.20;;;;;;5013330;28;20442;-70
2022/10/08 08:59:10;;;;;;;4.87;3.00;;;19.70;48.00;;;;;;5012140;28;20479;-70
2022/10/08 09:01:41;;;;;;;3.93;2.87;;;19.40;47.80;;;;;;5013301;28;20417;-70
2022/10/08 09:04:18;;;;;;;7.33;3.67;;;19.50;48.60;;;;;;5013003;28;20479;-70
2022/10/08 09:06:44;;;;;;;4.47;4.00;;;19.80;46.70;;;;;;5013265;28;20404;-70
2022/10/08 09:09:47;;;;;;;5.50;4.30;;;20.00;46.30;;;;;;5013136;28;20424;-70
2022/10/08 09:12:20;;;;;;;3.07;2.20;;;19.80;45.70;;;;;;5012782;28;20543;-69
2022/10/08 09:14:53;;;;;;;2.97;2.50;;;19.50;45.10;;;;;;5012744;28;20484;-70
2022/10/08 09:17:26;;;;;;;3.53;2.30;;;19.50;45.90;;;;;;5012932;28;20396;-69
2022/10/08 09:19:52;;;;;;;4.17;1.97;;;19.50;45.30;;;;;;5012999;28;20392;-72
2022/10/08 09:22:20;;;;;;;12.10;1.80;;;19.00;45.20;;;;;;5012637;28;20494;-70
2022/10/08 09:24:49;;;;;;;2.50;1.83;;;19.10;45.80;;;;;;5012177;28;20469;-70
2022/10/08 09:27:15;;;;;;;2.10;1.90;;;19.20;44.10;;;;;;5012094;28;20505;-71
2022/10/08 09:29:41;;;;;;;1.70;1.63;;;19.20;43.90;;;;;;5012747;28;20554;-70
2022/10/08 09:32:14;;;;;;;2.47;2.27;;;18.90;43.10;;;;;;5012270;28;20310;-71
2022/10/08 09:34:40;;;;;;;2.30;2.00;;;18.80;43.20;;;;;;5012419;28;20195;-71
2022/10/08 09:37:23;;;;;;;3.43;2.00;;;18.40;43.60;;;;;;5012588;28;20410;-71
2022/10/08 09:40:16;;;;;;;2.23;1.80;;;18.50;44.20;;;;;;5012636;28;20589;-69
2022/10/08 09:42:41;;;;;;;3.33;2.20;;;18.70;43.50;;;;;;5012282;28;20447;-71
2022/10/08 09:45:31;;;;;;;5.20;3.00;;;18.70;44.20;;;;;;5012121;28;20463;-71
2022/10/08 09:48:20;;;;;;;2.43;1.90;;;19.30;44.00;;;;;;5012203;28;20168;-70
2022/10/08 09:50:53;;;;;;;3.77;2.63;;;19.00;43.10;;;;;;5012054;28;20417;-69
2022/10/08 09:53:21;;;;;;;2.37;1.83;;;19.60;41.90;;;;;;5012324;28;20506;-69
2022/10/08 09:55:57;;;;;;;2.00;1.77;;;19.70;41.30;;;;;;5012054;28;20967;-71
2022/10/08 09:58:23;;;;;;;3.33;2.20;;;19.40;41.10;;;;;;5012497;28;20415;-71
2022/10/08 10:01:03;;;;;;;6.13;2.07;;;19.60;42.30;;;;;;5011999;28;20971;-70
2022/10/08 10:03:29;;;;;;;1.80;1.70;;;19.80;41.00;;;;;;5011959;28;20970;-70
2022/10/08 10:05:57;;;;;;;2.30;1.97;;;20.00;40.60;;;;;;5011868;28;20446;-70
2022/10/08 10:08:47;;;;;;;2.50;1.90;;;20.30;39.30;;;;;;5012554;28;20423;-70
2022/10/08 10:11:19;;;;;;;2.30;1.80;;;20.30;39.70;;;;;;5011902;28;20392;-70
2022/10/08 10:13:48;;;;;;;1.93;1.80;;;20.30;38.80;;;;;;5012095;28;20894;-70
2022/10/08 10:16:22;;;;;;;2.40;1.90;;;20.00;39.80;;;;;;5012366;28;20629;-70
2022/10/08 10:19:03;;;;;;;15.00;3.67;;;20.50;39.40;;;;;;5012268;28;20503;-70
2022/10/08 10:21:48;;;;;;;2.40;2.23;;;20.10;38.30;;;;;;5012044;28;20423;-70
2022/10/08 10:24:22;;;;;;;6.03;2.57;;;20.20;39.50;;;;;;5011666;28;20997;-71
2022/10/08 10:26:50;;;;;;;1.60;1.50;;;20.30;36.70;;;;;;5012267;28;20391;-70
2022/10/08 10:29:23;;;;;;;1.83;1.60;;;20.10;37.90;;;;;;5010607;28;20923;-70
2022/10/08 10:32:07;;;;;;;2.00;1.80;;;20.80;38.20;;;;;;5011442;28;20404;-70
2022/10/08 10:34:37;;;;;;;3.10;2.00;;;21.40;35.40;;;;;;5011380;28;20861;-70
2022/10/08 10:37:23;;;;;;;2.43;1.67;;;21.00;34.20;;;;;;5010163;28;20916;-70
2022/10/08 10:40:22;;;;;;;2.90;1.60;;;20.40;35.90;;;;;;5012031;28;20404;-70
2022/10/08 10:43:24;;;;;;;1.80;1.50;;;20.90;33.80;;;;;;5011181;28;20419;-69
2022/10/08 10:46:12;;;;;;;3.60;1.60;;;20.60;34.80;;;;;;5011107;28;20497;-70
2022/10/08 10:48:38;;;;;;;1.50;1.43;;;20.40;34.80;;;;;;5011832;28;20450;-70
2022/10/08 10:51:24;;;;;;;1.60;1.50;;;19.30;37.90;;;;;;5011091;28;20909;-70
2022/10/08 10:53:50;;;;;;;1.67;1.63;;;20.00;37.60;;;;;;5010940;28;20648;-71
2022/10/08 10:56:20;;;;;;;6.20;2.73;;;20.30;35.40;;;;;;5011487;28;20482;-71
2022/10/08 10:58:51;;;;;;;1.50;1.50;;;19.90;36.30;;;;;;5011971;28;20181;-71
2022/10/08 11:01:35;;;;;;;1.50;1.40;;;20.00;36.80;;;;;;5011149;28;20462;-70
2022/10/08 11:04:16;;;;;;;1.73;1.40;;;20.30;35.10;;;;;;5011110;28;20458;-70
2022/10/08 11:06:45;;;;;;;1.93;1.67;;;20.00;36.30;;;;;;5011507;28;20423;-70
2022/10/08 11:09:32;;;;;;;3.33;2.03;;;20.10;37.10;;;;;;5011613;28;20776;-69
2022/10/08 11:12:08;;;;;;;1.60;1.40;;;20.20;36.00;;;;;;5010868;28;20396;-69
2022/10/08 11:14:46;;;;;;;2.57;1.67;;;19.70;35.30;;;;;;5011164;28;20521;-70
2022/10/08 11:17:24;;;;;;;1.53;1.53;;;19.20;35.90;;;;;;5011439;28;20403;-69
2022/10/08 11:19:54;;;;;;;2.40;1.83;;;19.10;36.20;;;;;;5011402;28;20477;-71
2022/10/08 11:22:42;;;;;;;2.33;1.50;;;19.10;35.40;;;;;;5011333;28;20443;-70
2022/10/08 11:25:33;;;;;;;1.80;1.70;;;19.50;35.90;;;;;;5010878;28;20500;-71
2022/10/08 11:28:02;;;;;;;3.17;2.10;;;20.20;35.60;;;;;;5011359;28;20405;-69
2022/10/08 11:31:02;;;;;;;1.90;1.50;;;20.90;36.00;;;;;;5010994;28;20411;-69
2022/10/08 11:33:28;;;;;;;2.43;1.73;;;22.20;35.00;;;;;;5010272;28;20463;-71
2022/10/08 11:36:19;;;;;;;2.30;1.57;;;22.80;32.30;;;;;;5010955;28;20931;-69
2022/10/08 11:38:56;;;;;;;1.73;1.50;;;22.20;30.80;;;;;;5011075;28;20423;-69
2022/10/08 11:41:44;;;;;;;3.83;1.70;;;21.30;33.00;;;;;;5010817;28;20968;-69
2022/10/08 11:44:11;;;;;;;2.73;1.77;;;20.90;32.80;;;;;;5010958;28;20867;-69
2022/10/08 11:46:36;;;;;;;2.70;2.00;;;20.40;34.30;;;;;;5010730;28;20443;-69
2022/10/08 11:49:14;;;;;;;16.40;2.10;;;20.10;37.00;;;;;;5011746;28;20502;-71
2022/10/08 11:51:45;;;;;;;1.53;1.50;;;20.80;36.80;;;;;;5014796;28;20171;-69
2022/10/08 11:54:33;;;;;;;1.87;1.60;;;21.60;35.00;;;;;;5014771;28;20467;-71
2022/10/08 11:57:23;;;;;;;1.40;1.40;;;22.00;33.40;;;;;;5014830;28;20393;-70
2022/10/08 11:59:59;;;;;;;1.90;1.70;;;22.20;32.60;;;;;;5014800;28;20410;-69
2022/10/08 12:02:41;;;;;;;1.60;1.50;;;22.50;31.90;;;;;;5014321;28;20484;-69
2022/10/08 12:05:16;;;;;;;3.07;1.80;;;22.40;31.00;;;;;;5012919;28;20488;-69
2022/10/08 12:07:55;;;;;;;2.30;1.60;;;22.30;31.00;;;;;;5014624;28;20430;-69
2022/10/08 12:10:29;;;;;;;1.80;1.60;;;22.10;31.60;;;;;;5014800;28;20411;-69
2022/10/08 12:12:58;;;;;;;1.70;1.63;;;22.10;31.70;;;;;;5014223;28;20784;-70
2022/10/08 12:15:24;;;;;;;1.63;1.57;;;22.40;31.90;;;;;;5014312;28;20441;-69
2022/10/08 12:18:00;;;;;;;1.40;1.33;;;22.70;29.80;;;;;;5014410;28;20412;-69
2022/10/08 12:20:31;;;;;;;1.63;1.33;;;22.90;29.30;;;;;;5014555;28;20176;-71
2022/10/08 12:23:11;;;;;;;2.00;1.80;;;23.20;28.90;;;;;;5014402;28;20416;-73
2022/10/08 12:25:42;;;;;;;1.63;1.50;;;23.60;28.60;;;;;;5014132;28;20685;-70
2022/10/08 12:28:31;;;;;;;1.83;1.57;;;22.90;27.00;;;;;;5014019;28;20423;-70
2022/10/08 12:31:22;;;;;;;5.00;1.60;;;21.60;28.30;;;;;;5013264;28;20524;-70
2022/10/08 12:34:10;;;;;;;1.60;1.40;;;21.40;27.90;;;;;;5013419;28;20837;-70
2022/10/08 12:36:49;;;;;;;2.37;1.50;;;20.70;29.50;;;;;;5013539;28;20415;-70
2022/10/08 12:39:32;;;;;;;2.60;1.80;;;20.40;29.30;;;;;;5014147;28;20427;-69
2022/10/08 12:42:15;;;;;;;1.50;1.50;;;20.90;29.50;;;;;;5013155;28;20738;-70
2022/10/08 12:44:47;;;;;;;1.93;1.50;;;20.50;29.60;;;;;;5013440;28;20459;-69
2022/10/08 12:47:20;;;;;;;1.30;1.30;;;20.30;29.60;;;;;;5013644;28;20414;-70
2022/10/08 12:50:07;;;;;;;1.90;1.70;;;20.00;30.70;;;;;;5013693;28;20959;-70
2022/10/08 12:52:36;;;;;;;3.50;1.57;;;20.90;29.80;;;;;;5013167;28;20471;-69
2022/10/08 12:55:03;;;;;;;1.70;1.40;;;21.30;29.60;;;;;;5013274;28;20433;-69
2022/10/08 12:57:33;;;;;;;2.00;1.67;;;21.60;28.80;;;;;;5012191;28;20920;-69
2022/10/08 13:00:27;;;;;;;1.47;1.40;;;21.80;29.10;;;;;;5013413;28;20417;-69
2022/10/08 13:03:15;;;;;;;1.30;1.20;;;22.00;27.60;;;;;;5012970;28;20896;-69
2022/10/08 13:05:44;;;;;;;1.70;1.53;;;21.40;27.00;;;;;;5013168;28;20600;-69
2022/10/08 13:08:34;;;;;;;1.50;1.40;;;21.00;28.80;;;;;;5013250;28;20466;-69